Time,TemperatureF,DewpointF,PressureIn,WindDirection,WindDirectionDegrees,WindSpeedMPH,WindSpeedGustMPH,Humidity,HourlyPrecipIn,Conditions,Clouds,dailyrainin,SoftwareType,DateUTC
2013-01-25 00:00:00,52.0,42.1,30.03,WNW,303,5.0,5.0,69,0.00,,,0.00,Wunderground v.1.15,2013-01-25 06:00:00,
2013-01-25 00:09:00,51.5,42.0,30.03,WNW,303,3.0,3.0,70,0.00,,,0.00,Wunderground v.1.15,2013-01-25 06:09:00,
2013-01-25 00:14:00,51.4,41.9,30.03,WNW,303,2.0,7.0,70,0.00,,,0.00,Wunderground v.1.15,2013-01-25 06:14:00,
2013-01-25 00:19:00,51.2,41.7,30.03,WNW,302,3.0,7.0,70,0.00,,,0.00,Wunderground v.1.15,2013-01-25 06:19:00,
2013-01-25 00:24:00,51.0,41.9,30.03,WNW,302,3.0,7.0,71,0.00,,,0.00,Wunderground v.1.15,2013-01-25 06:24:00,
2013-01-25 00:29:00,50.9,41.8,30.03,WNW,302,2.0,2.0,71,0.00,,,0.00,Wunderground v.1.15,2013-01-25 06:29:00,
2013-01-25 00:39:00,50.7,41.6,30.02,WNW,302,1.0,1.0,71,0.00,,,0.00,Wunderground v.1.15,2013-01-25 06:39:00,
2013-01-25 00:44:00,50.6,41.5,30.02,WNW,302,0.0,7.0,71,0.00,,,0.00,Wunderground v.1.15,2013-01-25 06:44:00,
2013-01-25 00:49:00,50.5,41.8,30.01,WNW,302,0.0,7.0,72,0.00,,,0.00,Wunderground v.1.15,2013-01-25 06:49:00,
2013-01-25 00:59:00,50.3,41.6,30.01,WNW,302,0.0,7.0,72,0.00,,,0.00,Wunderground v.1.15,2013-01-25 06:59:00,
2013-01-25 01:04:00,50.2,41.5,30.01,WNW,302,0.0,7.0,72,0.00,,,0.00,Wunderground v.1.15,2013-01-25 07:04:00,
2013-01-25 01:14:00,50.0,41.3,30.01,WNW,302,1.0,3.0,72,0.00,,,0.00,Wunderground v.1.15,2013-01-25 07:14:00,
2013-01-25 01:19:00,49.9,41.6,30.01,WNW,302,1.0,1.0,73,0.00,,,0.00,Wunderground v.1.15,2013-01-25 07:19:00,
2013-01-25 01:24:00,49.8,41.5,30.01,WNW,302,2.0,2.0,73,0.00,,,0.00,Wunderground v.1.15,2013-01-25 07:24:00,
2013-01-25 01:29:00,49.7,41.4,30.01,WNW,302,1.0,7.0,73,0.00,,,0.00,Wunderground v.1.15,2013-01-25 07:29:00,
2013-01-25 01:34:00,49.7,41.4,30.01,WNW,302,2.0,7.0,73,0.00,,,0.00,Wunderground v.1.15,2013-01-25 07:34:00,
2013-01-25 01:44:00,49.5,41.2,30.02,WNW,302,2.0,6.0,73,0.00,,,0.00,Wunderground v.1.15,2013-01-25 07:44:00,
2013-01-25 01:49:00,49.4,41.1,30.03,NW,317,3.0,7.0,73,0.00,,,0.00,Wunderground v.1.15,2013-01-25 07:49:00,
2013-01-25 01:54:00,49.4,41.1,30.03,NW,311,5.0,7.0,73,0.00,,,0.00,Wunderground v.1.15,2013-01-25 07:54:00,
2013-01-25 02:04:00,49.1,40.8,30.04,WNW,288,6.0,6.0,73,0.00,,,0.00,Wunderground v.1.15,2013-01-25 08:04:00,
2013-01-25 02:09:00,48.7,40.4,30.04,WNW,292,7.0,7.0,73,0.00,,,0.00,Wunderground v.1.15,2013-01-25 08:09:00,
2013-01-25 02:19:00,48.3,40.4,30.04,WNW,296,4.0,7.0,74,0.00,,,0.00,Wunderground v.1.15,2013-01-25 08:19:00,
2013-01-25 02:24:00,48.2,40.3,30.04,WNW,296,3.0,7.0,74,0.00,,,0.00,Wunderground v.1.15,2013-01-25 08:24:00,
2013-01-25 02:29:00,48.1,40.2,30.04,WNW,296,2.0,2.0,74,0.00,,,0.00,Wunderground v.1.15,2013-01-25 08:29:00,
2013-01-25 02:39:00,47.8,39.9,30.04,WNW,296,2.0,7.0,74,0.00,,,0.00,Wunderground v.1.15,2013-01-25 08:39:00,
2013-01-25 02:44:00,47.7,39.8,30.04,WNW,296,2.0,7.0,74,0.00,,,0.00,Wunderground v.1.15,2013-01-25 08:44:00,
2013-01-25 02:49:00,47.5,40.0,30.03,WNW,296,1.0,7.0,75,0.00,,,0.00,Wunderground v.1.15,2013-01-25 08:49:00,
2013-01-25 02:59:00,47.3,39.8,30.03,WNW,298,2.0,7.0,75,0.00,,,0.00,Wunderground v.1.15,2013-01-25 08:59:00,
2013-01-25 03:04:00,47.1,39.9,30.03,WNW,298,3.0,7.0,76,0.00,,,0.00,Wunderground v.1.15,2013-01-25 09:04:00,
2013-01-25 03:09:00,46.9,39.7,30.03,WNW,298,3.0,3.0,76,0.00,,,0.00,Wunderground v.1.15,2013-01-25 09:09:00,
2013-01-25 03:14:00,46.9,40.1,30.03,WNW,299,2.0,4.0,77,0.00,,,0.00,Wunderground v.1.15,2013-01-25 09:14:00,
2013-01-25 03:19:00,46.8,40.0,30.03,WNW,299,3.0,7.0,77,0.00,,,0.00,Wunderground v.1.15,2013-01-25 09:19:00,
2013-01-25 03:29:00,46.8,40.3,30.03,WNW,299,3.0,3.0,78,0.00,,,0.00,Wunderground v.1.15,2013-01-25 09:29:00,
2013-01-25 03:34:00,46.7,40.2,30.03,WNW,299,2.0,6.0,78,0.00,,,0.00,Wunderground v.1.15,2013-01-25 09:34:00,
2013-01-25 03:39:00,46.7,40.2,30.03,WNW,299,2.0,7.0,78,0.00,,,0.00,Wunderground v.1.15,2013-01-25 09:39:00,
2013-01-25 03:49:00,46.7,40.5,30.03,WNW,299,1.0,7.0,79,0.00,,,0.00,Wunderground v.1.15,2013-01-25 09:49:00,
2013-01-25 03:59:00,46.6,40.4,30.02,WNW,299,2.0,2.0,79,0.00,,,0.00,Wunderground v.1.15,2013-01-25 09:59:00,
2013-01-25 04:04:00,46.5,40.7,30.02,WNW,299,2.0,6.0,80,0.00,,,0.00,Wunderground v.1.15,2013-01-25 10:04:00,
2013-01-25 04:14:00,46.4,40.9,30.02,WNW,299,2.0,7.0,81,0.00,,,0.00,Wunderground v.1.15,2013-01-25 10:14:00,
2013-01-25 04:19:00,46.4,40.9,30.03,WNW,299,1.0,7.0,81,0.00,,,0.00,Wunderground v.1.15,2013-01-25 10:19:00,
2013-01-25 04:24:00,46.4,40.9,30.03,WNW,302,2.0,7.0,81,0.00,,,0.00,Wunderground v.1.15,2013-01-25 10:24:00,
2013-01-25 04:34:00,46.3,40.8,30.02,WNW,302,1.0,4.0,81,0.00,,,0.00,Wunderground v.1.15,2013-01-25 10:34:00,
2013-01-25 04:39:00,46.2,41.0,30.02,WNW,302,2.0,2.0,82,0.00,,,0.00,Wunderground v.1.15,2013-01-25 10:39:00,
2013-01-25 04:49:00,46.1,40.9,30.03,WNW,303,2.0,7.0,82,0.00,,,0.00,Wunderground v.1.15,2013-01-25 10:49:00,
2013-01-25 04:54:00,46.1,41.2,30.03,WNW,303,2.0,7.0,83,0.00,,,0.00,Wunderground v.1.15,2013-01-25 10:54:00,
2013-01-25 04:59:00,46.0,41.1,30.04,NW,304,2.0,2.0,83,0.00,,,0.00,Wunderground v.1.15,2013-01-25 10:59:00,
2013-01-25 05:04:00,46.0,41.1,30.04,NW,304,2.0,3.0,83,0.00,,,0.00,Wunderground v.1.15,2013-01-25 11:04:00,
2013-01-25 05:14:00,45.9,41.3,30.04,NW,304,3.0,7.0,84,0.00,,,0.00,Wunderground v.1.15,2013-01-25 11:14:00,
2013-01-25 05:19:00,45.8,41.2,30.03,NW,304,3.0,3.0,84,0.00,,,0.00,Wunderground v.1.15,2013-01-25 11:19:00,
2013-01-25 05:24:00,45.8,41.2,30.04,NW,305,2.0,7.0,84,0.00,,,0.00,Wunderground v.1.15,2013-01-25 11:24:00,
2013-01-25 05:29:00,45.8,41.5,30.05,NW,312,3.0,3.0,85,0.00,,,0.00,Wunderground v.1.15,2013-01-25 11:29:00,
2013-01-25 05:39:00,45.8,41.9,30.05,NW,316,3.0,3.0,86,0.00,,,0.00,Wunderground v.1.15,2013-01-25 11:39:00,
2013-01-25 05:44:00,45.8,41.9,30.05,NW,316,2.0,7.0,86,0.00,,,0.00,Wunderground v.1.15,2013-01-25 11:44:00,
2013-01-25 05:54:00,45.7,42.1,30.05,NW,319,3.0,7.0,87,0.00,,,0.00,Wunderground v.1.15,2013-01-25 11:54:00,
2013-01-25 05:59:00,45.7,42.1,30.05,NW,322,4.0,7.0,87,0.00,,,0.00,Wunderground v.1.15,2013-01-25 11:59:00,
2013-01-25 06:04:00,45.7,42.1,30.05,NW,322,3.0,7.0,87,0.00,,,0.00,Wunderground v.1.15,2013-01-25 12:04:00,
2013-01-25 06:09:00,45.6,42.3,30.05,NW,322,1.0,7.0,88,0.00,,,0.00,Wunderground v.1.15,2013-01-25 12:09:00,
2013-01-25 06:14:00,45.6,42.3,30.06,NW,323,2.0,7.0,88,0.00,,,0.00,Wunderground v.1.15,2013-01-25 12:14:00,
2013-01-25 06:20:00,45.7,42.3,30.06,NW,322,2.0,7.0,88,0.00,,,0.00,Wunderground v.1.15,2013-01-25 12:20:00,
2013-01-25 06:29:00,45.6,42.3,30.07,NW,321,4.0,7.0,88,0.00,,,0.00,Wunderground v.1.15,2013-01-25 12:29:00,
2013-01-25 06:34:00,45.6,42.3,30.07,NW,321,3.0,7.0,88,0.00,,,0.00,Wunderground v.1.15,2013-01-25 12:34:00,
2013-01-25 06:44:00,45.6,42.5,30.07,NW,321,3.0,7.0,89,0.00,,,0.00,Wunderground v.1.15,2013-01-25 12:44:00,
2013-01-25 06:49:00,45.6,42.5,30.08,NW,321,3.0,7.0,89,0.00,,,0.00,Wunderground v.1.15,2013-01-25 12:49:00,
2013-01-25 06:54:00,45.6,42.8,30.09,NW,322,3.0,7.0,90,0.00,,,0.00,Wunderground v.1.15,2013-01-25 12:54:00,
2013-01-25 07:09:00,45.8,43.3,30.11,NW,317,4.0,9.0,91,0.00,,,0.00,Wunderground v.1.15,2013-01-25 13:09:00,
2013-01-25 07:14:00,45.9,43.4,30.11,NW,319,3.0,9.0,91,0.00,,,0.00,Wunderground v.1.15,2013-01-25 13:14:00,
2013-01-25 07:19:00,46.1,43.6,30.11,NNW,333,4.0,8.0,91,0.00,,,0.00,Wunderground v.1.15,2013-01-25 13:19:00,
2013-01-25 07:29:00,46.1,43.9,30.11,NNW,347,6.0,10.0,92,0.00,,,0.00,Wunderground v.1.15,2013-01-25 13:29:00,
2013-01-25 07:34:00,45.8,43.3,30.12,NNW,333,6.0,10.0,91,0.00,,,0.00,Wunderground v.1.15,2013-01-25 13:34:00,
2013-01-25 07:44:00,45.1,42.9,30.11,NW,326,6.0,8.0,92,0.00,,,0.00,Wunderground v.1.15,2013-01-25 13:44:00,
2013-01-25 07:49:00,44.9,42.7,30.11,NW,326,5.0,7.0,92,0.00,,,0.00,Wunderground v.1.15,2013-01-25 13:49:00,
2013-01-25 07:54:00,44.8,42.6,30.12,NNW,341,5.0,7.0,92,0.00,,,0.00,Wunderground v.1.15,2013-01-25 13:54:00,
2013-01-25 07:59:00,44.6,42.4,30.12,NNW,331,5.0,7.0,92,0.00,,,0.00,Wunderground v.1.15,2013-01-25 13:59:00,
2013-01-25 08:05:00,44.3,42.1,30.12,North,349,5.0,7.0,92,0.00,,,0.00,Wunderground v.1.15,2013-01-25 14:05:00,
2013-01-25 08:14:00,44.0,41.8,30.12,NNW,336,6.0,8.0,92,0.00,,,0.00,Wunderground v.1.15,2013-01-25 14:14:00,
2013-01-25 08:19:00,44.0,41.8,30.12,NNW,338,5.0,7.0,92,0.00,,,0.00,Wunderground v.1.15,2013-01-25 14:19:00,
2013-01-25 08:29:00,44.0,42.1,30.13,NNW,334,4.0,7.0,93,0.00,,,0.00,Wunderground v.1.15,2013-01-25 14:29:00,
2013-01-25 08:34:00,43.8,41.9,30.12,NNW,346,4.0,7.0,93,0.00,,,0.00,Wunderground v.1.15,2013-01-25 14:34:00,
2013-01-25 08:39:00,43.8,41.9,30.13,NNW,345,4.0,4.0,93,0.00,,,0.00,Wunderground v.1.15,2013-01-25 14:39:00,
2013-01-25 08:49:00,43.6,41.7,30.14,North,351,4.0,4.0,93,0.00,,,0.00,Wunderground v.1.15,2013-01-25 14:49:00,
2013-01-25 08:54:00,43.7,41.8,30.14,NNW,336,4.0,7.0,93,0.00,,,0.00,Wunderground v.1.15,2013-01-25 14:54:00,
2013-01-25 08:59:00,43.8,41.9,30.14,NNW,338,3.0,3.0,93,0.00,,,0.00,Wunderground v.1.15,2013-01-25 14:59:00,
2013-01-25 09:04:00,43.7,41.8,30.14,North,360,4.0,6.0,93,0.00,,,0.00,Wunderground v.1.15,2013-01-25 15:04:00,
2013-01-25 09:09:00,43.7,41.8,30.14,North,5,4.0,4.0,93,0.00,,,0.00,Wunderground v.1.15,2013-01-25 15:09:00,
2013-01-25 09:19:00,43.7,41.8,30.15,NNE,17,4.0,4.0,93,0.00,,,0.00,Wunderground v.1.15,2013-01-25 15:19:00,
2013-01-25 09:29:00,43.8,41.9,30.15,North,355,4.0,4.0,93,0.00,,,0.00,Wunderground v.1.15,2013-01-25 15:29:00,
2013-01-25 09:34:00,43.7,41.8,30.16,North,5,5.0,5.0,93,0.00,,,0.00,Wunderground v.1.15,2013-01-25 15:34:00,
2013-01-25 09:39:00,43.8,41.9,30.16,North,5,4.0,7.0,93,0.00,,,0.00,Wunderground v.1.15,2013-01-25 15:39:00,
2013-01-25 09:44:00,44.0,42.4,30.17,North,5,3.0,7.0,94,0.00,,,0.00,Wunderground v.1.15,2013-01-25 15:44:00,
2013-01-25 09:54:00,44.2,42.6,30.18,North,349,3.0,7.0,94,0.00,,,0.00,Wunderground v.1.15,2013-01-25 15:54:00,
2013-01-25 09:59:00,44.2,42.3,30.17,NNE,12,4.0,8.0,93,0.00,,,0.00,Wunderground v.1.15,2013-01-25 15:59:00,
2013-01-25 10:04:00,44.1,42.2,30.17,North,355,4.0,8.0,93,0.00,,,0.00,Wunderground v.1.15,2013-01-25 16:04:00,
2013-01-25 10:14:00,44.3,42.7,30.18,North,5,5.0,7.0,94,0.00,,,0.00,Wunderground v.1.15,2013-01-25 16:14:00,
2013-01-25 10:19:00,44.5,42.9,30.18,North,355,5.0,7.0,94,0.00,,,0.00,Wunderground v.1.15,2013-01-25 16:19:00,
2013-01-25 10:24:00,44.7,43.1,30.18,North,355,6.0,7.0,94,0.00,,,0.00,Wunderground v.1.15,2013-01-25 16:24:00,
2013-01-25 10:34:00,44.9,43.0,30.18,North,355,6.0,8.0,93,0.00,,,0.00,Wunderground v.1.15,2013-01-25 16:34:00,
2013-01-25 10:39:00,45.0,43.1,30.18,North,355,6.0,9.0,93,0.00,,,0.00,Wunderground v.1.15,2013-01-25 16:39:00,
2013-01-25 10:44:00,45.0,43.1,30.18,NNE,12,6.0,9.0,93,0.00,,,0.00,Wunderground v.1.15,2013-01-25 16:44:00,
2013-01-25 10:54:00,45.1,43.2,30.17,NNE,22,5.0,7.0,93,0.00,,,0.00,Wunderground v.1.15,2013-01-25 16:54:00,
2013-01-25 10:59:00,45.2,43.3,30.17,NNE,26,5.0,7.0,93,0.00,,,0.00,Wunderground v.1.15,2013-01-25 16:59:00,
2013-01-25 11:04:00,45.2,43.3,30.18,North,5,5.0,7.0,93,0.00,,,0.00,Wunderground v.1.15,2013-01-25 17:04:00,
2013-01-25 11:14:00,45.2,43.0,30.18,North,9,5.0,9.0,92,0.00,,,0.00,Wunderground v.1.15,2013-01-25 17:14:00,
2013-01-25 11:19:00,45.1,42.9,30.18,NNW,343,6.0,6.0,92,0.00,,,0.00,Wunderground v.1.15,2013-01-25 17:19:00,
2013-01-25 11:25:00,45.0,42.8,30.17,NNW,344,6.0,10.0,92,0.00,,,0.00,Wunderground v.1.15,2013-01-25 17:25:00,
2013-01-25 11:34:00,45.0,42.8,30.17,NNW,342,5.0,10.0,92,0.00,,,0.00,Wunderground v.1.15,2013-01-25 17:34:00,
2013-01-25 11:39:00,45.1,42.9,30.17,North,360,5.0,5.0,92,0.00,,,0.00,Wunderground v.1.15,2013-01-25 17:39:00,
2013-01-25 11:44:00,45.2,42.7,30.17,North,5,5.0,6.0,91,0.00,,,0.00,Wunderground v.1.15,2013-01-25 17:44:00,
2013-01-25 11:50:00,45.1,42.6,30.17,NNE,19,5.0,9.0,91,0.00,,,0.00,Wunderground v.1.15,2013-01-25 17:50:00,
2013-01-25 11:59:00,45.0,42.5,30.16,North,9,6.0,7.0,91,0.00,,,0.00,Wunderground v.1.15,2013-01-25 17:59:00,
2013-01-25 12:09:00,44.5,42.0,30.16,NNE,15,6.0,7.0,91,0.00,,,0.00,Wunderground v.1.15,2013-01-25 18:09:00,
2013-01-25 12:14:00,44.3,41.6,30.16,NNE,13,6.0,7.0,90,0.00,,,0.00,Wunderground v.1.15,2013-01-25 18:14:00,
2013-01-25 12:19:00,44.3,41.6,30.16,North,350,6.0,8.0,90,0.00,,,0.00,Wunderground v.1.15,2013-01-25 18:19:00,
2013-01-25 12:29:00,43.9,41.2,30.15,North,355,6.0,6.0,90,0.00,,,0.00,Wunderground v.1.15,2013-01-25 18:29:00,
2013-01-25 12:34:00,43.9,41.4,30.15,NNW,328,5.0,7.0,91,0.00,,,0.00,Wunderground v.1.15,2013-01-25 18:34:00,
2013-01-25 12:39:00,44.0,41.5,30.15,NNW,329,4.0,7.0,91,0.00,,,0.00,Wunderground v.1.15,2013-01-25 18:39:00,
2013-01-25 12:44:00,44.1,41.6,30.15,North,351,4.0,10.0,91,0.00,,,0.00,Wunderground v.1.15,2013-01-25 18:44:00,
2013-01-25 12:54:00,44.4,41.7,30.15,North,5,5.0,6.0,90,0.00,,,0.00,Wunderground v.1.15,2013-01-25 18:54:00,
2013-01-25 12:59:00,44.6,41.8,30.15,North,355,5.0,5.0,90,0.00,,,0.00,Wunderground v.1.15,2013-01-25 18:59:00,
2013-01-25 13:04:00,44.9,42.1,30.15,North,355,4.0,7.0,90,0.00,,,0.00,Wunderground v.1.15,2013-01-25 19:04:00,
2013-01-25 13:09:00,45.0,42.0,30.14,North,355,4.0,7.0,89,0.00,,,0.00,Wunderground v.1.15,2013-01-25 19:09:00,
2013-01-25 13:14:00,45.1,42.1,30.14,NNE,12,5.0,7.0,89,0.00,,,0.00,Wunderground v.1.15,2013-01-25 19:14:00,
2013-01-25 13:24:00,45.5,42.2,30.14,NNW,338,4.0,7.0,88,0.00,,,0.00,Wunderground v.1.15,2013-01-25 19:24:00,
2013-01-25 13:29:00,45.6,42.0,30.14,NNW,339,5.0,5.0,87,0.00,,,0.00,Wunderground v.1.15,2013-01-25 19:29:00,
2013-01-25 13:34:00,45.8,42.2,30.15,NNW,340,4.0,7.0,87,0.00,,,0.00,Wunderground v.1.15,2013-01-25 19:34:00,
2013-01-25 13:39:00,46.0,42.0,30.15,North,350,3.0,7.0,86,0.00,,,0.00,Wunderground v.1.15,2013-01-25 19:39:00,
2013-01-25 13:45:00,46.2,42.2,30.15,NNW,327,3.0,7.0,86,0.00,,,0.00,Wunderground v.1.15,2013-01-25 19:45:00,
2013-01-25 13:54:00,46.0,41.7,30.15,North,360,6.0,8.0,85,0.00,,,0.00,Wunderground v.1.15,2013-01-25 19:54:00,
2013-01-25 14:04:00,46.0,41.4,30.14,NNE,13,4.0,7.0,84,0.00,,,0.00,Wunderground v.1.15,2013-01-25 20:04:00,
2013-01-25 14:10:00,46.0,41.4,30.14,North,360,4.0,4.0,84,0.00,,,0.00,Wunderground v.1.15,2013-01-25 20:10:00,
2013-01-25 14:19:00,46.3,41.7,30.13,North,5,3.0,7.0,84,0.00,,,0.00,Wunderground v.1.15,2013-01-25 20:19:00,
2013-01-25 14:24:00,46.5,41.9,30.13,NNW,346,4.0,8.0,84,0.00,,,0.00,Wunderground v.1.15,2013-01-25 20:24:00,
2013-01-25 14:29:00,46.7,41.8,30.14,North,11,5.0,7.0,83,0.00,,,0.00,Wunderground v.1.15,2013-01-25 20:29:00,
2013-01-25 14:34:00,46.9,42.0,30.14,North,360,5.0,7.0,83,0.00,,,0.00,Wunderground v.1.15,2013-01-25 20:34:00,
2013-01-25 14:39:00,47.3,42.1,30.14,North,351,3.0,9.0,82,0.00,,,0.00,Wunderground v.1.15,2013-01-25 20:39:00,
2013-01-25 14:44:00,47.2,41.7,30.14,NNE,13,4.0,9.0,81,0.00,,,0.00,Wunderground v.1.15,2013-01-25 20:44:00,
2013-01-25 14:54:00,47.2,41.7,30.14,NNW,348,5.0,8.0,81,0.00,,,0.00,Wunderground v.1.15,2013-01-25 20:54:00,
2013-01-25 15:04:00,47.5,41.6,30.14,NNW,329,5.0,7.0,80,0.00,,,0.00,Wunderground v.1.15,2013-01-25 21:04:00,
2013-01-25 15:09:00,47.7,41.8,30.14,NW,308,5.0,7.0,80,0.00,,,0.00,Wunderground v.1.15,2013-01-25 21:09:00,
2013-01-25 15:19:00,47.8,41.6,30.13,North,355,7.0,7.0,79,0.00,,,0.00,Wunderground v.1.15,2013-01-25 21:19:00,
2013-01-25 15:29:00,47.6,41.7,30.14,NW,311,6.0,6.0,80,0.00,,,0.00,Wunderground v.1.15,2013-01-25 21:29:00,
2013-01-25 15:34:00,47.7,41.5,30.14,North,5,5.0,7.0,79,0.00,,,0.00,Wunderground v.1.15,2013-01-25 21:34:00,
2013-01-25 15:44:00,47.7,41.5,30.14,NNW,336,6.0,7.0,79,0.00,,,0.00,Wunderground v.1.15,2013-01-25 21:44:00,
2013-01-25 15:49:00,47.8,41.6,30.14,NNW,334,5.0,7.0,79,0.00,,,0.00,Wunderground v.1.15,2013-01-25 21:49:00,
2013-01-25 15:59:00,48.1,41.6,30.15,NNW,342,5.0,8.0,78,0.00,,,0.00,Wunderground v.1.15,2013-01-25 21:59:00,
2013-01-25 16:04:00,48.1,41.2,30.15,North,351,6.0,8.0,77,0.00,,,0.00,Wunderground v.1.15,2013-01-25 22:04:00,
2013-01-25 16:09:00,48.1,41.2,30.15,NNW,338,5.0,5.0,77,0.00,,,0.00,Wunderground v.1.15,2013-01-25 22:09:00,
2013-01-25 16:14:00,48.1,41.2,30.15,NW,316,4.0,7.0,77,0.00,,,0.00,Wunderground v.1.15,2013-01-25 22:14:00,
2013-01-25 16:20:00,48.2,41.3,30.15,NW,318,4.0,7.0,77,0.00,,,0.00,Wunderground v.1.15,2013-01-25 22:20:00,
2013-01-25 16:29:00,48.2,41.0,30.14,NNW,339,5.0,7.0,76,0.00,,,0.00,Wunderground v.1.15,2013-01-25 22:29:00,
2013-01-25 16:34:00,48.2,41.0,30.15,NNW,329,4.0,7.0,76,0.00,,,0.00,Wunderground v.1.15,2013-01-25 22:34:00,
2013-01-25 16:39:00,48.2,41.0,30.14,NNW,340,4.0,4.0,76,0.00,,,0.00,Wunderground v.1.15,2013-01-25 22:39:00,
2013-01-25 16:49:00,48.3,41.1,30.14,North,349,3.0,7.0,76,0.00,,,0.00,Wunderground v.1.15,2013-01-25 22:49:00,
2013-01-25 16:54:00,48.3,41.1,30.14,NNE,15,4.0,7.0,76,0.00,,,0.00,Wunderground v.1.15,2013-01-25 22:54:00,
2013-01-25 16:59:00,48.5,41.3,30.14,NNE,12,4.0,7.0,76,0.00,,,0.00,Wunderground v.1.15,2013-01-25 22:59:00,
2013-01-25 17:04:00,48.7,41.1,30.14,North,11,3.0,7.0,75,0.00,,,0.00,Wunderground v.1.15,2013-01-25 23:04:00,
2013-01-25 17:14:00,49.2,41.3,30.13,North,5,4.0,6.0,74,0.00,,,0.00,Wunderground v.1.15,2013-01-25 23:14:00,
2013-01-25 17:19:00,49.5,41.6,30.13,North,349,5.0,8.0,74,0.00,,,0.00,Wunderground v.1.15,2013-01-25 23:19:00,
2013-01-25 17:24:00,49.6,41.3,30.13,North,5,5.0,9.0,73,0.00,,,0.00,Wunderground v.1.15,2013-01-25 23:24:00,
2013-01-25 17:34:00,49.5,41.2,30.14,North,5,4.0,7.0,73,0.00,,,0.00,Wunderground v.1.15,2013-01-25 23:34:00,
2013-01-25 17:39:00,49.5,41.2,30.14,North,360,4.0,4.0,73,0.00,,,0.00,Wunderground v.1.15,2013-01-25 23:39:00,
2013-01-25 17:44:00,49.5,41.2,30.14,North,360,3.0,7.0,73,0.00,,,0.00,Wunderground v.1.15,2013-01-25 23:44:00,
2013-01-25 17:49:00,49.5,41.2,30.14,North,5,3.0,7.0,73,0.00,,,0.00,Wunderground v.1.15,2013-01-25 23:49:00,
2013-01-25 17:54:00,49.5,40.8,30.14,North,5,3.0,7.0,72,0.00,,,0.00,Wunderground v.1.15,2013-01-25 23:54:00,
2013-01-25 18:04:00,49.4,40.4,30.15,NNE,13,5.0,7.0,71,0.00,,,0.00,Wunderground v.1.15,2013-01-26 00:04:00,
2013-01-25 18:09:00,49.4,40.4,30.15,NNE,13,4.0,4.0,71,0.00,,,0.00,Wunderground v.1.15,2013-01-26 00:09:00,
2013-01-25 18:14:00,49.3,40.3,30.15,NNE,13,2.0,7.0,71,0.00,,,0.00,Wunderground v.1.15,2013-01-26 00:14:00,
2013-01-25 18:24:00,49.0,40.0,30.15,NNE,13,1.0,7.0,71,0.00,,,0.00,Wunderground v.1.15,2013-01-26 00:24:00,
2013-01-25 18:29:00,48.8,39.8,30.15,NNE,13,2.0,7.0,71,0.00,,,0.00,Wunderground v.1.15,2013-01-26 00:29:00,
2013-01-25 18:35:00,48.7,39.7,30.14,NNE,13,3.0,7.0,71,0.00,,,0.00,Wunderground v.1.15,2013-01-26 00:35:00,
2013-01-25 18:44:00,48.5,39.5,30.14,NNE,13,3.0,7.0,71,0.00,,,0.00,Wunderground v.1.15,2013-01-26 00:44:00,
2013-01-25 18:49:00,48.3,39.3,30.15,NNE,13,2.0,2.0,71,0.00,,,0.00,Wunderground v.1.15,2013-01-26 00:49:00,
2013-01-25 18:54:00,48.2,39.6,30.15,NNE,13,1.0,3.0,72,0.00,,,0.00,Wunderground v.1.15,2013-01-26 00:54:00,
2013-01-25 18:59:00,48.1,39.5,30.14,NNE,13,1.0,7.0,72,0.00,,,0.00,Wunderground v.1.15,2013-01-26 00:59:00,
2013-01-25 19:09:00,47.9,39.7,30.14,NNE,13,1.0,7.0,73,0.00,,,0.00,Wunderground v.1.15,2013-01-26 01:09:00,
2013-01-25 19:14:00,47.8,39.6,30.15,NNE,13,1.0,7.0,73,0.00,,,0.00,Wunderground v.1.15,2013-01-26 01:14:00,
2013-01-25 19:19:00,47.7,39.8,30.15,NNE,13,1.0,1.0,74,0.00,,,0.00,Wunderground v.1.15,2013-01-26 01:19:00,
2013-01-25 19:24:00,47.6,39.7,30.15,NNE,13,0.0,7.0,74,0.00,,,0.00,Wunderground v.1.15,2013-01-26 01:24:00,
2013-01-25 19:34:00,47.6,39.7,30.15,NNE,13,1.0,7.0,74,0.00,,,0.00,Wunderground v.1.15,2013-01-26 01:34:00,
2013-01-25 19:39:00,47.5,39.6,30.15,NNE,13,1.0,1.0,74,0.00,,,0.00,Wunderground v.1.15,2013-01-26 01:39:00,
2013-01-25 19:44:00,47.6,40.1,30.15,NNE,13,1.0,7.0,75,0.00,,,0.00,Wunderground v.1.15,2013-01-26 01:44:00,
2013-01-25 19:49:00,47.6,40.1,30.15,NNE,13,1.0,1.0,75,0.00,,,0.00,Wunderground v.1.15,2013-01-26 01:49:00,
2013-01-25 19:59:00,47.5,40.0,30.15,NNE,13,0.0,7.0,75,0.00,,,0.00,Wunderground v.1.15,2013-01-26 01:59:00,
2013-01-25 20:09:00,47.6,40.1,30.16,NNE,13,1.0,1.0,75,0.00,,,0.00,Wunderground v.1.15,2013-01-26 02:09:00,
2013-01-25 20:14:00,47.6,40.1,30.16,NNE,13,1.0,7.0,75,0.00,,,0.00,Wunderground v.1.15,2013-01-26 02:14:00,
2013-01-25 20:19:00,47.6,40.1,30.16,NNE,13,1.0,1.0,75,0.00,,,0.00,Wunderground v.1.15,2013-01-26 02:19:00,
2013-01-25 20:29:00,47.6,39.7,30.16,NNE,13,1.0,1.0,74,0.00,,,0.00,Wunderground v.1.15,2013-01-26 02:29:00,
2013-01-25 20:34:00,47.6,39.7,30.16,NNE,13,0.0,7.0,74,0.00,,,0.00,Wunderground v.1.15,2013-01-26 02:34:00,
2013-01-25 20:40:00,47.5,39.6,30.16,NNE,13,0.0,7.0,74,0.00,,,0.00,Wunderground v.1.15,2013-01-26 02:40:00,
2013-01-25 20:49:00,47.5,39.6,30.16,NNE,13,1.0,1.0,74,0.00,,,0.00,Wunderground v.1.15,2013-01-26 02:49:00,
2013-01-25 20:54:00,47.5,39.6,30.16,NNE,13,1.0,7.0,74,0.00,,,0.00,Wunderground v.1.15,2013-01-26 02:54:00,
2013-01-25 20:59:00,47.5,39.6,30.15,NNE,13,0.0,7.0,74,0.00,,,0.00,Wunderground v.1.15,2013-01-26 02:59:00,
2013-01-25 21:09:00,47.6,39.7,30.16,NNE,13,1.0,1.0,74,0.00,,,0.00,Wunderground v.1.15,2013-01-26 03:09:00,
2013-01-25 21:14:00,47.6,39.4,30.16,NNE,13,1.0,7.0,73,0.00,,,0.00,Wunderground v.1.15,2013-01-26 03:14:00,
2013-01-25 21:19:00,47.6,39.4,30.16,NNE,13,1.0,7.0,73,0.00,,,0.00,Wunderground v.1.15,2013-01-26 03:19:00,
2013-01-25 21:24:00,47.6,39.0,30.17,NNE,13,2.0,7.0,72,0.00,,,0.00,Wunderground v.1.15,2013-01-26 03:24:00,
2013-01-25 21:34:00,47.6,39.0,30.16,NNE,13,1.0,7.0,72,0.00,,,0.00,Wunderground v.1.15,2013-01-26 03:34:00,
2013-01-25 21:39:00,47.5,38.9,30.15,NNE,14,1.0,7.0,72,0.00,,,0.00,Wunderground v.1.15,2013-01-26 03:39:00,
2013-01-25 21:44:00,47.4,38.5,30.16,NNE,19,1.0,7.0,71,0.00,,,0.00,Wunderground v.1.15,2013-01-26 03:44:00,
2013-01-25 21:54:00,47.2,38.3,30.16,NNE,19,3.0,7.0,71,0.00,,,0.00,Wunderground v.1.15,2013-01-26 03:54:00,
2013-01-25 21:59:00,47.2,38.6,30.16,NNE,19,2.0,7.0,72,0.00,,,0.00,Wunderground v.1.15,2013-01-26 03:59:00,
2013-01-25 22:04:00,47.1,38.5,30.17,NNE,19,1.0,7.0,72,0.00,,,0.00,Wunderground v.1.15,2013-01-26 04:04:00,
2013-01-25 22:09:00,47.1,38.5,30.16,NNE,21,2.0,7.0,72,0.00,,,0.00,Wunderground v.1.15,2013-01-26 04:09:00,
2013-01-25 22:14:00,47.1,38.5,30.16,NNE,22,2.0,7.0,72,0.00,,,0.00,Wunderground v.1.15,2013-01-26 04:14:00,
2013-01-25 22:24:00,47.2,38.6,30.16,NNE,23,2.0,5.0,72,0.00,,,0.00,Wunderground v.1.15,2013-01-26 04:24:00,
2013-01-25 22:34:00,47.2,38.3,30.17,NNE,21,3.0,7.0,71,0.00,,,0.00,Wunderground v.1.15,2013-01-26 04:34:00,
2013-01-25 22:39:00,47.2,38.3,30.17,NNE,17,4.0,4.0,71,0.00,,,0.00,Wunderground v.1.15,2013-01-26 04:39:00,
2013-01-25 22:49:00,47.3,38.4,30.16,NNE,16,2.0,2.0,71,0.00,,,0.00,Wunderground v.1.15,2013-01-26 04:49:00,
2013-01-25 22:54:00,47.3,38.4,30.17,NNE,16,1.0,7.0,71,0.00,,,0.00,Wunderground v.1.15,2013-01-26 04:54:00,
2013-01-25 22:59:00,47.3,38.4,30.17,NNE,16,2.0,7.0,71,0.00,,,0.00,Wunderground v.1.15,2013-01-26 04:59:00,
2013-01-25 23:04:00,47.3,38.4,30.18,NNE,16,2.0,7.0,71,0.00,,,0.00,Wunderground v.1.15,2013-01-26 05:04:00,
2013-01-25 23:10:00,47.3,38.4,30.19,NNE,16,2.0,7.0,71,0.00,,,0.00,Wunderground v.1.15,2013-01-26 05:10:00,
2013-01-25 23:19:00,47.4,38.5,30.19,North,9,3.0,7.0,71,0.00,,,0.00,Wunderground v.1.15,2013-01-26 05:19:00,
2013-01-25 23:24:00,47.3,38.4,30.19,North,5,3.0,7.0,71,0.00,,,0.00,Wunderground v.1.15,2013-01-26 05:24:00,
2013-01-25 23:34:00,47.3,38.4,30.19,North,5,3.0,4.0,71,0.00,,,0.00,Wunderground v.1.15,2013-01-26 05:34:00,
2013-01-25 23:39:00,47.2,38.6,30.19,North,5,3.0,3.0,72,0.00,,,0.00,Wunderground v.1.15,2013-01-26 05:39:00,
2013-01-25 23:44:00,47.2,38.6,30.20,North,5,3.0,4.0,72,0.00,,,0.00,Wunderground v.1.15,2013-01-26 05:44:00,
2013-01-25 23:54:00,47.2,38.6,30.20,North,360,2.0,4.0,72,0.00,,,0.00,Wunderground v.1.15,2013-01-26 05:54:00,